sensor_id;sensor_type;location;lat;lon;timestamp;P1;durP1;ratioP1;P2;durP2;ratioP2
72123;SDS011;63818;37.134;-8.548;2023-05-07T00:00:51;25.6;;;7.7;;
72123;SDS011;63818;37.134;-8.548;2023-05-07T00:05:37;26.5;;;7.8;;
72123;SDS011;63818;37.134;-8.548;2023-05-07T00:10:25;24.5;;;7.2;;
72123;SDS011;63818;37.134;-8.548;2023-05-07T00:15:11;20.1;;;6.9;;
72123;SDS011;63818;37.134;-8.548;2023-05-07T00:19:58;20.3;;;6.6;;
72123;SDS011;63818;37.134;-8.548;2023-05-07T00:24:44;23.2;;;6.7;;
72123;SDS011;63818;37.134;-8.548;2023-05-07T00:29:32;20.5;;;6.9;;
72123;SDS011;63818;37.134;-8.548;2023-05-07T00:34:19;21.2;;;7.0;;
72123;SDS011;63818;37.134;-8.548;2023-05-07T00:39:06;22.2;;;6.9;;
72123;SDS011;63818;37.134;-8.548;2023-05-07T00:43:52;21.2;;;7.1;;
72123;SDS011;63818;37.134;-8.548;2023-05-07T00:48:38;27.0;;;7.4;;
72123;SDS011;63818;37.134;-8.548;2023-05-07T00:53:27;29.7;;;7.4;;
72123;SDS011;63818;37.134;-8.548;2023-05-07T00:58:13;22.8;;;7.1;;
72123;SDS011;63818;37.134;-8.548;2023-05-07T01:03:00;22.5;;;7.2;;
72123;SDS011;63818;37.134;-8.548;2023-05-07T01:07:46;26.9;;;7.6;;
72123;SDS011;63818;37.134;-8.548;2023-05-07T01:12:33;25.2;;;7.7;;
72123;SDS011;63818;37.134;-8.548;2023-05-07T01:17:20;24.6;;;7.4;;
72123;SDS011;63818;37.134;-8.548;2023-05-07T01:22:09;28.3;;;7.1;;
72123;SDS011;63818;37.134;-8.548;2023-05-07T01:26:55;25.9;;;7.1;;
72123;SDS011;63818;37.134;-8.548;2023-05-07T01:31:40;20.1;;;6.9;;
72123;SDS011;63818;37.134;-8.548;2023-05-07T01:36:28;21.2;;;6.9;;
72123;SDS011;63818;37.134;-8.548;2023-05-07T01:41:15;21.9;;;7.3;;
72123;SDS011;63818;37.134;-8.548;2023-05-07T01:46:02;21.6;;;7.5;;
72123;SDS011;63818;37.134;-8.548;2023-05-07T01:50:49;25.5;;;7.7;;
72123;SDS011;63818;37.134;-8.548;2023-05-07T01:55:35;24.1;;;7.6;;
72123;SDS011;63818;37.134;-8.548;2023-05-07T02:00:22;20.8;;;7.6;;
72123;SDS011;63818;37.134;-8.548;2023-05-07T02:05:08;20.9;;;7.5;;
72123;SDS011;63818;37.134;-8.548;2023-05-07T02:09:56;22.2;;;7.0;;
72123;SDS011;63818;37.134;-8.548;2023-05-07T02:14:43;25.1;;;7.4;;
72123;SDS011;63818;37.134;-8.548;2023-05-07T02:19:31;23.7;;;7.4;;
72123;SDS011;63818;37.134;-8.548;2023-05-07T02:24:17;21.4;;;6.7;;
72123;SDS011;63818;37.134;-8.548;2023-05-07T02:29:03;21.9;;;6.8;;
72123;SDS011;63818;37.134;-8.548;2023-05-07T02:33:52;22.0;;;7.3;;
72123;SDS011;63818;37.134;-8.548;2023-05-07T02:38:38;23.0;;;7.1;;
72123;SDS011;63818;37.134;-8.548;2023-05-07T02:43:24;21.9;;;6.9;;
72123;SDS011;63818;37.134;-8.548;2023-05-07T02:48:10;20.3;;;7.1;;
72123;SDS011;63818;37.134;-8.548;2023-05-07T02:52:56;22.6;;;7.3;;
72123;SDS011;63818;37.134;-8.548;2023-05-07T02:57:45;21.9;;;7.0;;
72123;SDS011;63818;37.134;-8.548;2023-05-07T03:02:31;20.4;;;6.5;;
72123;SDS011;63818;37.134;-8.548;2023-05-07T03:07:18;22.3;;;6.8;;
72123;SDS011;63818;37.134;-8.548;2023-05-07T03:12:04;21.2;;;6.9;;
72123;SDS011;63818;37.134;-8.548;2023-05-07T03:16:50;18.7;;;6.6;;
72123;SDS011;63818;37.134;-8.548;2023-05-07T03:21:36;21.5;;;6.4;;
72123;SDS011;63818;37.134;-8.548;2023-05-07T03:26:22;23.0;;;6.7;;
72123;SDS011;63818;37.134;-8.548;2023-05-07T03:31:09;22.7;;;6.9;;
72123;SDS011;63818;37.134;-8.548;2023-05-07T03:35:55;25.3;;;7.6;;
72123;SDS011;63818;37.134;-8.548;2023-05-07T03:40:44;23.6;;;7.4;;
72123;SDS011;63818;37.134;-8.548;2023-05-07T03:45:30;20.8;;;6.8;;
72123;SDS011;63818;37.134;-8.548;2023-05-07T03:50:16;20.5;;;7.1;;
72123;SDS011;63818;37.134;-8.548;2023-05-07T03:55:02;20.2;;;6.9;;
72123;SDS011;63818;37.134;-8.548;2023-05-07T03:59:48;21.8;;;7.2;;
72123;SDS011;63818;37.134;-8.548;2023-05-07T04:04:36;20.4;;;7.3;;
72123;SDS011;63818;37.134;-8.548;2023-05-07T04:09:23;19.8;;;6.5;;
72123;SDS011;63818;37.134;-8.548;2023-05-07T04:14:09;20.9;;;6.6;;
72123;SDS011;63818;37.134;-8.548;2023-05-07T04:18:55;19.9;;;6.8;;
72123;SDS011;63818;37.134;-8.548;2023-05-07T04:23:41;20.6;;;7.0;;
72123;SDS011;63818;37.134;-8.548;2023-05-07T04:28:27;21.2;;;7.3;;
72123;SDS011;63818;37.134;-8.548;2023-05-07T04:33:15;20.9;;;7.3;;
72123;SDS011;63818;37.134;-8.548;2023-05-07T04:38:01;22.0;;;7.3;;
72123;SDS011;63818;37.134;-8.548;2023-05-07T04:45:32;21.1;;;7.6;;
72123;SDS011;63818;37.134;-8.548;2023-05-07T04:50:17;21.8;;;7.4;;
72123;SDS011;63818;37.134;-8.548;2023-05-07T04:55:03;19.8;;;7.2;;
72123;SDS011;63818;37.134;-8.548;2023-05-07T04:59:49;19.3;;;7.2;;
72123;SDS011;63818;37.134;-8.548;2023-05-07T05:04:35;20.6;;;6.8;;
72123;SDS011;63818;37.134;-8.548;2023-05-07T05:09:20;17.5;;;6.6;;
72123;SDS011;63818;37.134;-8.548;2023-05-07T05:14:06;18.6;;;7.3;;
72123;SDS011;63818;37.134;-8.548;2023-05-07T05:18:52;22.5;;;7.7;;
72123;SDS011;63818;37.134;-8.548;2023-05-07T05:23:38;23.8;;;7.3;;
72123;SDS011;63818;37.134;-8.548;2023-05-07T05:28:24;24.3;;;7.2;;
72123;SDS011;63818;37.134;-8.548;2023-05-07T05:33:10;22.4;;;7.4;;
72123;SDS011;63818;37.134;-8.548;2023-05-07T05:37:56;20.4;;;7.2;;
72123;SDS011;63818;37.134;-8.548;2023-05-07T05:42:42;21.4;;;7.3;;
72123;SDS011;63818;37.134;-8.548;2023-05-07T05:47:28;26.4;;;7.6;;
72123;SDS011;63818;37.134;-8.548;2023-05-07T05:52:15;25.7;;;7.8;;
72123;SDS011;63818;37.134;-8.548;2023-05-07T05:57:01;18.7;;;7.3;;
72123;SDS011;63818;37.134;-8.548;2023-05-07T06:01:47;19.8;;;7.0;;
72123;SDS011;63818;37.134;-8.548;2023-05-07T06:06:33;21.2;;;7.6;;
72123;SDS011;63818;37.134;-8.548;2023-05-07T06:11:18;17.4;;;7.4;;
72123;SDS011;63818;37.134;-8.548;2023-05-07T06:16:04;16.9;;;7.1;;
72123;SDS011;63818;37.134;-8.548;2023-05-07T06:20:51;19.1;;;7.6;;
72123;SDS011;63818;37.134;-8.548;2023-05-07T06:25:37;20.5;;;7.6;;
72123;SDS011;63818;37.134;-8.548;2023-05-07T06:30:23;20.8;;;7.4;;
72123;SDS011;63818;37.134;-8.548;2023-05-07T06:35:10;19.8;;;7.3;;
72123;SDS011;63818;37.134;-8.548;2023-05-07T06:39:56;19.0;;;7.1;;
72123;SDS011;63818;37.134;-8.548;2023-05-07T06:44:42;20.6;;;7.3;;
72123;SDS011;63818;37.134;-8.548;2023-05-07T06:49:28;22.0;;;7.3;;
72123;SDS011;63818;37.134;-8.548;2023-05-07T06:54:14;20.7;;;7.3;;
72123;SDS011;63818;37.134;-8.548;2023-05-07T06:58:59;19.2;;;7.4;;
72123;SDS011;63818;37.134;-8.548;2023-05-07T07:03:49;18.9;;;7.1;;
72123;SDS011;63818;37.134;-8.548;2023-05-07T07:08:37;20.0;;;6.9;;
72123;SDS011;63818;37.134;-8.548;2023-05-07T07:13:26;16.5;;;6.4;;
72123;SDS011;63818;37.134;-8.548;2023-05-07T07:18:13;14.8;;;6.4;;
72123;SDS011;63818;37.134;-8.548;2023-05-07T07:22:59;19.1;;;6.9;;
72123;SDS011;63818;37.134;-8.548;2023-05-07T07:27:48;17.3;;;6.5;;
72123;SDS011;63818;37.134;-8.548;2023-05-07T07:32:36;17.4;;;6.6;;
72123;SDS011;63818;37.134;-8.548;2023-05-07T07:37:23;17.4;;;6.5;;
72123;SDS011;63818;37.134;-8.548;2023-05-07T07:42:09;15.1;;;6.2;;
72123;SDS011;63818;37.134;-8.548;2023-05-07T07:46:54;17.6;;;6.6;;
72123;SDS011;63818;37.134;-8.548;2023-05-07T07:51:41;18.7;;;6.4;;
72123;SDS011;63818;37.134;-8.548;2023-05-07T07:56:27;16.3;;;6.4;;
72123;SDS011;63818;37.134;-8.548;2023-05-07T08:01:13;15.9;;;6.5;;
72123;SDS011;63818;37.134;-8.548;2023-05-07T08:05:59;17.9;;;6.3;;
72123;SDS011;63818;37.134;-8.548;2023-05-07T08:10:45;20.9;;;6.3;;
72123;SDS011;63818;37.134;-8.548;2023-05-07T08:15:31;17.7;;;6.1;;
72123;SDS011;63818;37.134;-8.548;2023-05-07T08:20:16;13.5;;;6.0;;
72123;SDS011;63818;37.134;-8.548;2023-05-07T08:25:03;18.2;;;6.2;;
72123;SDS011;63818;37.134;-8.548;2023-05-07T08:29:49;17.3;;;6.3;;
72123;SDS011;63818;37.134;-8.548;2023-05-07T08:34:35;13.0;;;6.5;;
72123;SDS011;63818;37.134;-8.548;2023-05-07T08:39:21;21.2;;;6.7;;
72123;SDS011;63818;37.134;-8.548;2023-05-07T08:44:07;19.6;;;7.0;;
72123;SDS011;63818;37.134;-8.548;2023-05-07T08:48:58;19.9;;;7.0;;
72123;SDS011;63818;37.134;-8.548;2023-05-07T08:53:45;17.8;;;6.6;;
72123;SDS011;63818;37.134;-8.548;2023-05-07T08:58:32;14.8;;;6.5;;
72123;SDS011;63818;37.134;-8.548;2023-05-07T09:03:18;16.7;;;6.4;;
72123;SDS011;63818;37.134;-8.548;2023-05-07T09:08:04;20.6;;;6.3;;
72123;SDS011;63818;37.134;-8.548;2023-05-07T09:12:52;20.1;;;6.5;;
72123;SDS011;63818;37.134;-8.548;2023-05-07T09:17:38;18.8;;;6.5;;
72123;SDS011;63818;37.134;-8.548;2023-05-07T09:22:24;15.7;;;6.2;;
72123;SDS011;63818;37.134;-8.548;2023-05-07T09:27:09;14.8;;;6.3;;
72123;SDS011;63818;37.134;-8.548;2023-05-07T09:31:55;17.3;;;6.9;;
72123;SDS011;63818;37.134;-8.548;2023-05-07T09:36:42;18.1;;;6.8;;
72123;SDS011;63818;37.134;-8.548;2023-05-07T09:41:28;14.3;;;6.1;;
72123;SDS011;63818;37.134;-8.548;2023-05-07T09:46:15;14.0;;;6.0;;
72123;SDS011;63818;37.134;-8.548;2023-05-07T09:51:06;19.7;;;6.4;;
72123;SDS011;63818;37.134;-8.548;2023-05-07T09:56:01;18.8;;;6.5;;
72123;SDS011;63818;37.134;-8.548;2023-05-07T10:00:48;15.6;;;6.6;;
72123;SDS011;63818;37.134;-8.548;2023-05-07T10:05:35;17.4;;;6.5;;
72123;SDS011;63818;37.134;-8.548;2023-05-07T10:10:21;16.2;;;6.2;;
72123;SDS011;63818;37.134;-8.548;2023-05-07T10:15:09;14.5;;;6.2;;
72123;SDS011;63818;37.134;-8.548;2023-05-07T10:19:56;13.8;;;6.1;;
72123;SDS011;63818;37.134;-8.548;2023-05-07T10:24:42;12.2;;;6.0;;
72123;SDS011;63818;37.134;-8.548;2023-05-07T10:29:37;13.6;;;6.3;;
72123;SDS011;63818;37.134;-8.548;2023-05-07T10:34:29;13.9;;;6.3;;
72123;SDS011;63818;37.134;-8.548;2023-05-07T10:39:21;12.3;;;6.2;;
72123;SDS011;63818;37.134;-8.548;2023-05-07T10:44:07;14.4;;;6.5;;
72123;SDS011;63818;37.134;-8.548;2023-05-07T10:49:09;18.5;;;7.1;;
72123;SDS011;63818;37.134;-8.548;2023-05-07T10:54:19;17.0;;;6.7;;
72123;SDS011;63818;37.134;-8.548;2023-05-07T11:04:24;14.1;;;5.9;;
72123;SDS011;63818;37.134;-8.548;2023-05-07T11:09:11;15.3;;;6.3;;
72123;SDS011;63818;37.134;-8.548;2023-05-07T11:13:57;15.4;;;6.3;;
72123;SDS011;63818;37.134;-8.548;2023-05-07T11:18:49;14.0;;;6.6;;
72123;SDS011;63818;37.134;-8.548;2023-05-07T11:23:57;21.0;;;7.2;;
72123;SDS011;63818;37.134;-8.548;2023-05-07T11:28:44;17.6;;;7.0;;
72123;SDS011;63818;37.134;-8.548;2023-05-07T11:33:30;20.7;;;7.7;;
72123;SDS011;63818;37.134;-8.548;2023-05-07T11:38:16;20.9;;;8.5;;
72123;SDS011;63818;37.134;-8.548;2023-05-07T11:43:11;16.8;;;7.9;;
72123;SDS011;63818;37.134;-8.548;2023-05-07T11:47:57;18.5;;;7.6;;
72123;SDS011;63818;37.134;-8.548;2023-05-07T11:52:49;22.1;;;8.0;;
72123;SDS011;63818;37.134;-8.548;2023-05-07T11:57:38;20.8;;;8.3;;
72123;SDS011;63818;37.134;-8.548;2023-05-07T12:02:23;17.5;;;7.9;;
72123;SDS011;63818;37.134;-8.548;2023-05-07T12:07:13;16.2;;;7.6;;
72123;SDS011;63818;37.134;-8.548;2023-05-07T12:11:59;17.4;;;7.5;;
72123;SDS011;63818;37.134;-8.548;2023-05-07T12:16:48;15.1;;;6.8;;
72123;SDS011;63818;37.134;-8.548;2023-05-07T12:21:34;14.9;;;6.3;;
72123;SDS011;63818;37.134;-8.548;2023-05-07T12:26:21;16.2;;;6.3;;
72123;SDS011;63818;37.134;-8.548;2023-05-07T12:31:07;14.8;;;6.1;;
72123;SDS011;63818;37.134;-8.548;2023-05-07T12:35:54;12.4;;;5.8;;
72123;SDS011;63818;37.134;-8.548;2023-05-07T12:40:41;12.7;;;5.7;;
72123;SDS011;63818;37.134;-8.548;2023-05-07T12:45:29;14.1;;;5.6;;
72123;SDS011;63818;37.134;-8.548;2023-05-07T12:50:22;15.2;;;6.1;;
72123;SDS011;63818;37.134;-8.548;2023-05-07T12:55:12;15.4;;;6.6;;
72123;SDS011;63818;37.134;-8.548;2023-05-07T12:59:59;17.2;;;6.5;;
72123;SDS011;63818;37.134;-8.548;2023-05-07T13:04:46;18.4;;;6.6;;
72123;SDS011;63818;37.134;-8.548;2023-05-07T13:09:34;16.2;;;6.5;;
72123;SDS011;63818;37.134;-8.548;2023-05-07T13:14:20;13.0;;;6.1;;
72123;SDS011;63818;37.134;-8.548;2023-05-07T13:19:08;12.7;;;6.0;;
72123;SDS011;63818;37.134;-8.548;2023-05-07T13:23:54;14.2;;;6.0;;
72123;SDS011;63818;37.134;-8.548;2023-05-07T13:28:40;16.2;;;6.3;;
72123;SDS011;63818;37.134;-8.548;2023-05-07T13:33:26;16.4;;;6.9;;
72123;SDS011;63818;37.134;-8.548;2023-05-07T13:38:13;15.8;;;6.9;;
72123;SDS011;63818;37.134;-8.548;2023-05-07T13:43:01;17.2;;;6.3;;
72123;SDS011;63818;37.134;-8.548;2023-05-07T13:47:47;17.4;;;6.0;;
72123;SDS011;63818;37.134;-8.548;2023-05-07T13:52:33;20.2;;;6.7;;
72123;SDS011;63818;37.134;-8.548;2023-05-07T13:57:19;22.1;;;7.1;;
72123;SDS011;63818;37.134;-8.548;2023-05-07T14:02:05;17.5;;;6.9;;
72123;SDS011;63818;37.134;-8.548;2023-05-07T14:06:51;17.5;;;7.1;;
72123;SDS011;63818;37.134;-8.548;2023-05-07T14:11:37;22.0;;;7.3;;
72123;SDS011;63818;37.134;-8.548;2023-05-07T14:16:23;23.5;;;7.3;;
72123;SDS011;63818;37.134;-8.548;2023-05-07T14:21:09;25.3;;;7.3;;
72123;SDS011;63818;37.134;-8.548;2023-05-07T14:25:55;22.7;;;7.4;;
72123;SDS011;63818;37.134;-8.548;2023-05-07T14:30:41;22.2;;;7.3;;
72123;SDS011;63818;37.134;-8.548;2023-05-07T14:35:26;21.2;;;7.0;;
72123;SDS011;63818;37.134;-8.548;2023-05-07T14:40:12;17.5;;;7.0;;
72123;SDS011;63818;37.134;-8.548;2023-05-07T14:44:58;21.0;;;7.1;;
72123;SDS011;63818;37.134;-8.548;2023-05-07T14:49:45;23.4;;;7.6;;
72123;SDS011;63818;37.134;-8.548;2023-05-07T14:54:33;21.0;;;7.5;;
72123;SDS011;63818;37.134;-8.548;2023-05-07T14:59:19;19.7;;;7.2;;
72123;SDS011;63818;37.134;-8.548;2023-05-07T15:04:06;19.2;;;7.4;;
72123;SDS011;63818;37.134;-8.548;2023-05-07T15:08:52;19.9;;;7.3;;
72123;SDS011;63818;37.134;-8.548;2023-05-07T15:13:38;25.3;;;7.6;;
72123;SDS011;63818;37.134;-8.548;2023-05-07T15:18:23;25.9;;;7.4;;
72123;SDS011;63818;37.134;-8.548;2023-05-07T15:23:10;21.4;;;7.2;;
72123;SDS011;63818;37.134;-8.548;2023-05-07T15:27:56;20.6;;;7.3;;
72123;SDS011;63818;37.134;-8.548;2023-05-07T15:32:44;20.8;;;7.4;;
72123;SDS011;63818;37.134;-8.548;2023-05-07T15:37:32;21.6;;;7.5;;
72123;SDS011;63818;37.134;-8.548;2023-05-07T15:42:18;20.3;;;7.0;;
72123;SDS011;63818;37.134;-8.548;2023-05-07T15:47:04;21.8;;;7.3;;
72123;SDS011;63818;37.134;-8.548;2023-05-07T15:51:50;19.9;;;7.6;;
72123;SDS011;63818;37.134;-8.548;2023-05-07T15:56:36;18.5;;;7.1;;
72123;SDS011;63818;37.134;-8.548;2023-05-07T16:01:22;27.1;;;7.1;;
72123;SDS011;63818;37.134;-8.548;2023-05-07T16:06:08;25.6;;;7.2;;
72123;SDS011;63818;37.134;-8.548;2023-05-07T16:10:55;18.2;;;7.1;;
72123;SDS011;63818;37.134;-8.548;2023-05-07T16:15:40;19.5;;;7.1;;
72123;SDS011;63818;37.134;-8.548;2023-05-07T16:20:27;21.9;;;7.0;;
72123;SDS011;63818;37.134;-8.548;2023-05-07T16:25:13;21.8;;;7.2;;
72123;SDS011;63818;37.134;-8.548;2023-05-07T16:29:59;19.7;;;7.2;;
72123;SDS011;63818;37.134;-8.548;2023-05-07T16:34:48;19.2;;;7.0;;
72123;SDS011;63818;37.134;-8.548;2023-05-07T16:39:34;19.8;;;7.3;;
72123;SDS011;63818;37.134;-8.548;2023-05-07T16:44:20;20.3;;;7.6;;
72123;SDS011;63818;37.134;-8.548;2023-05-07T16:49:09;21.6;;;7.7;;
72123;SDS011;63818;37.134;-8.548;2023-05-07T16:53:56;24.9;;;8.0;;
72123;SDS011;63818;37.134;-8.548;2023-05-07T16:58:45;27.4;;;7.9;;
72123;SDS011;63818;37.134;-8.548;2023-05-07T17:03:31;22.9;;;6.9;;
72123;SDS011;63818;37.134;-8.548;2023-05-07T17:08:18;22.5;;;6.6;;
72123;SDS011;63818;37.134;-8.548;2023-05-07T17:13:04;26.3;;;7.4;;
72123;SDS011;63818;37.134;-8.548;2023-05-07T17:17:51;22.4;;;7.3;;
72123;SDS011;63818;37.134;-8.548;2023-05-07T17:22:37;20.7;;;7.2;;
72123;SDS011;63818;37.134;-8.548;2023-05-07T17:27:24;21.4;;;7.5;;
72123;SDS011;63818;37.134;-8.548;2023-05-07T17:32:11;19.6;;;7.2;;
72123;SDS011;63818;37.134;-8.548;2023-05-07T17:36:57;21.9;;;7.4;;
72123;SDS011;63818;37.134;-8.548;2023-05-07T17:41:44;22.2;;;7.5;;
72123;SDS011;63818;37.134;-8.548;2023-05-07T17:46:31;23.6;;;7.2;;
72123;SDS011;63818;37.134;-8.548;2023-05-07T17:51:18;23.1;;;6.9;;
72123;SDS011;63818;37.134;-8.548;2023-05-07T17:56:04;20.2;;;6.6;;
72123;SDS011;63818;37.134;-8.548;2023-05-07T18:00:52;22.6;;;6.9;;
72123;SDS011;63818;37.134;-8.548;2023-05-07T18:05:39;20.0;;;6.8;;
72123;SDS011;63818;37.134;-8.548;2023-05-07T18:10:25;20.2;;;6.6;;
72123;SDS011;63818;37.134;-8.548;2023-05-07T18:15:11;23.7;;;6.8;;
72123;SDS011;63818;37.134;-8.548;2023-05-07T18:19:58;21.3;;;6.5;;
72123;SDS011;63818;37.134;-8.548;2023-05-07T18:24:45;20.2;;;6.5;;
72123;SDS011;63818;37.134;-8.548;2023-05-07T18:29:32;19.0;;;6.5;;
72123;SDS011;63818;37.134;-8.548;2023-05-07T18:34:19;18.7;;;6.5;;
72123;SDS011;63818;37.134;-8.548;2023-05-07T18:39:05;20.2;;;7.0;;
72123;SDS011;63818;37.134;-8.548;2023-05-07T18:43:52;20.0;;;7.0;;
72123;SDS011;63818;37.134;-8.548;2023-05-07T18:48:38;19.9;;;6.8;;
72123;SDS011;63818;37.134;-8.548;2023-05-07T18:53:25;18.7;;;6.9;;
72123;SDS011;63818;37.134;-8.548;2023-05-07T18:58:11;18.7;;;6.9;;
72123;SDS011;63818;37.134;-8.548;2023-05-07T19:02:58;23.0;;;7.3;;
72123;SDS011;63818;37.134;-8.548;2023-05-07T19:07:45;22.7;;;7.3;;
72123;SDS011;63818;37.134;-8.548;2023-05-07T19:12:31;20.1;;;6.6;;
72123;SDS011;63818;37.134;-8.548;2023-05-07T19:17:17;21.4;;;6.9;;
72123;SDS011;63818;37.134;-8.548;2023-05-07T19:22:06;22.0;;;6.9;;
72123;SDS011;63818;37.134;-8.548;2023-05-07T19:26:53;24.3;;;6.6;;
72123;SDS011;63818;37.134;-8.548;2023-05-07T19:31:39;26.0;;;7.4;;
72123;SDS011;63818;37.134;-8.548;2023-05-07T19:36:27;23.8;;;7.5;;
72123;SDS011;63818;37.134;-8.548;2023-05-07T19:41:14;22.1;;;6.6;;
72123;SDS011;63818;37.134;-8.548;2023-05-07T19:46:00;18.8;;;6.4;;
72123;SDS011;63818;37.134;-8.548;2023-05-07T19:50:48;16.8;;;6.1;;
72123;SDS011;63818;37.134;-8.548;2023-05-07T19:55:34;20.2;;;6.2;;
72123;SDS011;63818;37.134;-8.548;2023-05-07T20:00:21;20.1;;;6.9;;
72123;SDS011;63818;37.134;-8.548;2023-05-07T20:05:08;18.4;;;7.0;;
72123;SDS011;63818;37.134;-8.548;2023-05-07T20:09:55;17.2;;;6.6;;
72123;SDS011;63818;37.134;-8.548;2023-05-07T20:14:41;14.6;;;6.1;;
72123;SDS011;63818;37.134;-8.548;2023-05-07T20:19:28;15.8;;;6.0;;
72123;SDS011;63818;37.134;-8.548;2023-05-07T20:24:15;17.0;;;6.0;;
72123;SDS011;63818;37.134;-8.548;2023-05-07T20:29:02;17.4;;;6.1;;
72123;SDS011;63818;37.134;-8.548;2023-05-07T20:33:48;16.2;;;6.2;;
72123;SDS011;63818;37.134;-8.548;2023-05-07T20:38:35;15.1;;;6.4;;
72123;SDS011;63818;37.134;-8.548;2023-05-07T20:43:24;15.4;;;6.4;;
72123;SDS011;63818;37.134;-8.548;2023-05-07T20:48:10;13.9;;;6.1;;
72123;SDS011;63818;37.134;-8.548;2023-05-07T20:52:57;13.7;;;5.9;;
72123;SDS011;63818;37.134;-8.548;2023-05-07T20:57:43;16.9;;;6.3;;
72123;SDS011;63818;37.134;-8.548;2023-05-07T21:02:29;18.8;;;6.6;;
72123;SDS011;63818;37.134;-8.548;2023-05-07T21:07:15;20.6;;;6.5;;
72123;SDS011;63818;37.134;-8.548;2023-05-07T21:12:01;21.0;;;6.1;;
72123;SDS011;63818;37.134;-8.548;2023-05-07T21:16:47;19.8;;;6.0;;
72123;SDS011;63818;37.134;-8.548;2023-05-07T21:21:33;18.0;;;6.1;;
72123;SDS011;63818;37.134;-8.548;2023-05-07T21:26:19;17.7;;;6.2;;
72123;SDS011;63818;37.134;-8.548;2023-05-07T21:31:09;18.9;;;6.5;;
72123;SDS011;63818;37.134;-8.548;2023-05-07T21:35:56;17.5;;;6.3;;
72123;SDS011;63818;37.134;-8.548;2023-05-07T21:40:42;15.5;;;5.8;;
72123;SDS011;63818;37.134;-8.548;2023-05-07T21:45:28;14.9;;;5.4;;
72123;SDS011;63818;37.134;-8.548;2023-05-07T21:50:14;15.7;;;5.7;;
72123;SDS011;63818;37.134;-8.548;2023-05-07T21:55:00;15.3;;;5.7;;
72123;SDS011;63818;37.134;-8.548;2023-05-07T21:59:46;15.7;;;5.4;;
72123;SDS011;63818;37.134;-8.548;2023-05-07T22:04:32;17.6;;;5.6;;
72123;SDS011;63818;37.134;-8.548;2023-05-07T22:09:18;17.3;;;5.9;;
72123;SDS011;63818;37.134;-8.548;2023-05-07T22:14:05;14.9;;;5.9;;
72123;SDS011;63818;37.134;-8.548;2023-05-07T22:18:51;16.5;;;5.9;;
72123;SDS011;63818;37.134;-8.548;2023-05-07T22:23:39;16.2;;;5.6;;
72123;SDS011;63818;37.134;-8.548;2023-05-07T22:28:26;13.0;;;5.4;;
72123;SDS011;63818;37.134;-8.548;2023-05-07T22:33:12;12.5;;;5.5;;
72123;SDS011;63818;37.134;-8.548;2023-05-07T22:37:58;10.4;;;5.1;;
72123;SDS011;63818;37.134;-8.548;2023-05-07T22:42:44;9.7;;;4.9;;
72123;SDS011;63818;37.134;-8.548;2023-05-07T22:47:29;12.4;;;5.1;;
72123;SDS011;63818;37.134;-8.548;2023-05-07T22:52:16;11.3;;;5.0;;
72123;SDS011;63818;37.134;-8.548;2023-05-07T22:57:02;9.7;;;4.8;;
72123;SDS011;63818;37.134;-8.548;2023-05-07T23:01:48;10.8;;;4.8;;
72123;SDS011;63818;37.134;-8.548;2023-05-07T23:06:36;10.6;;;4.7;;
72123;SDS011;63818;37.134;-8.548;2023-05-07T23:11:22;12.4;;;4.9;;
72123;SDS011;63818;37.134;-8.548;2023-05-07T23:16:08;13.9;;;5.2;;
72123;SDS011;63818;37.134;-8.548;2023-05-07T23:20:57;11.1;;;5.1;;
72123;SDS011;63818;37.134;-8.548;2023-05-07T23:25:45;8.7;;;4.8;;
72123;SDS011;63818;37.134;-8.548;2023-05-07T23:30:30;10.6;;;4.7;;
72123;SDS011;63818;37.134;-8.548;2023-05-07T23:35:16;11.8;;;4.9;;
72123;SDS011;63818;37.134;-8.548;2023-05-07T23:40:03;12.2;;;4.9;;
72123;SDS011;63818;37.134;-8.548;2023-05-07T23:44:49;13.1;;;4.7;;
72123;SDS011;63818;37.134;-8.548;2023-05-07T23:49:35;11.2;;;4.7;;
72123;SDS011;63818;37.134;-8.548;2023-05-07T23:54:21;10.1;;;5.1;;
72123;SDS011;63818;37.134;-8.548;2023-05-07T23:59:07;9.0;;;4.9;;
